createdAt,value
2024-02-29T00:01:23.844Z,15.65
2024-02-29T00:04:41.373Z,15.63
2024-02-29T00:08:00.673Z,15.55
2024-02-29T00:11:18.266Z,15.48
2024-02-29T00:14:36.014Z,15.48
2024-02-29T00:17:53.808Z,15.59
2024-02-29T00:21:12.205Z,15.48
2024-02-29T00:24:29.773Z,15.49
2024-02-29T00:27:47.472Z,15.54
2024-02-29T00:31:05.614Z,15.55
2024-02-29T00:34:23.370Z,15.45
2024-02-29T00:37:41.195Z,15.50
2024-02-29T00:40:58.749Z,15.56
2024-02-29T00:44:16.492Z,15.38
2024-02-29T00:47:34.337Z,15.47
2024-02-29T00:50:52.165Z,15.39
2024-02-29T00:54:09.858Z,15.42
2024-02-29T00:57:27.467Z,15.43
2024-02-29T01:00:45.149Z,15.40
2024-02-29T01:04:02.872Z,15.33
2024-02-29T01:07:21.016Z,15.35
2024-02-29T01:10:38.897Z,15.41
2024-02-29T01:13:56.849Z,15.37
2024-02-29T01:17:14.220Z,15.28
2024-02-29T01:20:32.808Z,15.32
2024-02-29T01:23:50.412Z,15.32
2024-02-29T01:27:07.942Z,15.20
2024-02-29T01:30:26.850Z,15.25
2024-02-29T01:33:44.559Z,15.19
2024-02-29T01:37:02.287Z,15.15
2024-02-29T01:40:21.786Z,15.15
2024-02-29T01:43:39.354Z,15.04
2024-02-29T01:46:56.927Z,15.07
2024-02-29T01:50:19.104Z,15.15
2024-02-29T01:53:36.746Z,15.00
2024-02-29T01:56:54.449Z,15.21
2024-02-29T02:00:14.620Z,15.15
2024-02-29T02:03:32.570Z,15.10
2024-02-29T02:06:51.183Z,15.03
2024-02-29T02:10:09.590Z,15.02
2024-02-29T02:13:27.304Z,15.03
2024-02-29T02:16:45.038Z,15.04
2024-02-29T02:20:03.133Z,14.91
2024-02-29T02:23:20.866Z,14.65
2024-02-29T02:26:38.432Z,14.45
2024-02-29T02:29:56.235Z,14.63
2024-02-29T02:33:14.332Z,14.45
2024-02-29T02:36:31.766Z,14.70
2024-02-29T02:39:49.872Z,15.07
2024-02-29T02:43:07.556Z,14.96
2024-02-29T02:46:25.694Z,14.98
2024-02-29T02:49:44.036Z,14.99
2024-02-29T02:53:01.625Z,14.98
2024-02-29T02:56:19.303Z,15.00
2024-02-29T02:59:37.893Z,15.07
2024-02-29T03:02:55.425Z,15.06
2024-02-29T03:06:15.739Z,15.00
2024-02-29T03:09:33.601Z,15.04
2024-02-29T03:12:52.762Z,14.98
2024-02-29T03:16:11.120Z,14.91
2024-02-29T03:19:28.703Z,14.90
2024-02-29T03:22:47.781Z,14.97
2024-02-29T03:26:06.307Z,14.92
2024-02-29T03:29:24.437Z,15.07
2024-02-29T03:32:42.122Z,15.06
2024-02-29T03:35:59.912Z,15.02
2024-02-29T03:39:17.790Z,15.10
2024-02-29T03:42:35.611Z,15.00
2024-02-29T03:45:53.159Z,15.08
2024-02-29T03:49:14.212Z,15.22
2024-02-29T03:52:31.893Z,15.01
2024-02-29T03:55:50.121Z,15.08
2024-02-29T03:59:07.876Z,14.99
2024-02-29T04:02:25.639Z,14.98
2024-02-29T04:05:43.243Z,14.85
2024-02-29T04:09:00.999Z,14.88
2024-02-29T04:12:19.427Z,14.91
2024-02-29T04:15:37.163Z,14.85
2024-02-29T04:18:54.515Z,14.97
2024-02-29T04:22:12.487Z,14.88
2024-02-29T04:25:30.310Z,14.94
2024-02-29T04:28:47.839Z,14.92
2024-02-29T04:32:05.784Z,14.88
2024-02-29T04:35:23.605Z,14.80
2024-02-29T04:38:40.654Z,14.66
2024-02-29T04:41:55.913Z,14.77
2024-02-29T04:45:17.796Z,14.83
2024-02-29T04:48:36.488Z,14.89
2024-02-29T04:51:54.248Z,14.82
2024-02-29T04:55:12.739Z,14.84
2024-02-29T04:58:30.686Z,14.78
2024-02-29T05:01:48.576Z,14.87
2024-02-29T05:05:08.349Z,14.60
2024-02-29T05:08:25.836Z,14.72
2024-02-29T05:11:43.665Z,14.79
2024-02-29T05:15:01.566Z,14.79
2024-02-29T05:18:20.085Z,14.64
2024-02-29T05:21:38.344Z,14.68
2024-02-29T05:24:55.962Z,14.83
2024-02-29T05:28:14.113Z,14.89
2024-02-29T05:31:31.848Z,14.78
2024-02-29T05:34:49.354Z,14.68
2024-02-29T05:38:08.242Z,14.71
2024-02-29T05:41:25.886Z,14.74
2024-02-29T05:44:43.859Z,14.73
2024-02-29T05:48:01.323Z,14.95
2024-02-29T05:51:19.027Z,14.84
2024-02-29T05:54:36.647Z,14.95
2024-02-29T05:57:54.395Z,15.00
2024-02-29T06:01:12.882Z,14.91
2024-02-29T06:04:30.945Z,14.97
2024-02-29T06:07:48.783Z,14.93
2024-02-29T06:11:06.460Z,14.93
2024-02-29T06:14:26.692Z,14.98
2024-02-29T06:17:44.475Z,14.88
2024-02-29T06:21:02.426Z,14.84
2024-02-29T06:24:21.169Z,15.02
2024-02-29T06:27:41.667Z,14.84
2024-02-29T06:30:59.602Z,14.83
2024-02-29T06:34:19.295Z,14.80
2024-02-29T06:37:37.069Z,14.75
2024-02-29T06:40:55.599Z,14.78
2024-02-29T06:44:14.197Z,14.79
2024-02-29T06:47:31.739Z,14.83
2024-02-29T06:50:49.681Z,14.80
2024-02-29T06:54:07.586Z,14.77
2024-02-29T06:57:25.305Z,14.77
2024-02-29T07:00:43.255Z,14.80
2024-02-29T07:04:01.074Z,14.76
2024-02-29T07:07:18.996Z,14.95
2024-02-29T07:10:36.921Z,14.85
2024-02-29T07:13:54.521Z,14.96
2024-02-29T07:17:12.472Z,14.83
2024-02-29T07:20:30.340Z,14.92
2024-02-29T07:23:47.894Z,15.01
2024-02-29T07:27:05.696Z,15.01
2024-02-29T07:30:23.682Z,15.10
2024-02-29T07:33:41.661Z,15.13
2024-02-29T07:36:59.688Z,15.15
2024-02-29T07:40:18.637Z,15.04
2024-02-29T07:43:36.357Z,14.45
2024-02-29T07:46:53.888Z,14.66
2024-02-29T07:50:12.949Z,14.84
2024-02-29T07:53:31.465Z,15.16
2024-02-29T07:56:52.321Z,15.22
2024-02-29T08:00:12.120Z,15.14
2024-02-29T08:03:29.636Z,14.72
2024-02-29T08:06:47.457Z,15.29
2024-02-29T08:10:05.297Z,14.99
2024-02-29T08:13:23.075Z,14.97
2024-02-29T08:16:40.841Z,14.89
2024-02-29T08:19:58.519Z,14.48
2024-02-29T08:23:17.792Z,15.10
2024-02-29T08:26:35.544Z,15.36
2024-02-29T08:29:53.071Z,15.37
2024-02-29T08:33:10.927Z,15.76
2024-02-29T08:36:30.856Z,15.81
2024-02-29T08:39:48.423Z,15.86
2024-02-29T08:43:05.671Z,16.05
2024-02-29T08:46:23.558Z,15.76
2024-02-29T08:49:41.316Z,16.14
2024-02-29T08:52:59.412Z,15.89
2024-02-29T08:56:17.187Z,16.14
2024-02-29T08:59:34.772Z,16.24
2024-02-29T09:02:52.597Z,16.61
2024-02-29T09:06:10.436Z,16.72
2024-02-29T09:09:30.194Z,16.58
2024-02-29T09:12:48.920Z,16.77
2024-02-29T09:16:06.517Z,16.84
2024-02-29T09:19:24.406Z,16.75
2024-02-29T09:22:42.686Z,16.60
2024-02-29T09:26:00.539Z,16.64
2024-02-29T09:29:18.024Z,16.66
2024-02-29T09:32:35.683Z,16.41
2024-02-29T09:35:55.330Z,16.81
2024-02-29T09:39:13.142Z,16.96
2024-02-29T09:42:31.270Z,17.27
2024-02-29T09:45:50.763Z,17.56
2024-02-29T09:49:10.183Z,17.57
2024-02-29T09:52:28.295Z,17.70
2024-02-29T09:55:46.703Z,18.38
2024-02-29T09:59:08.695Z,18.33
2024-02-29T10:02:26.557Z,18.80
2024-02-29T10:05:44.347Z,19.11
2024-02-29T10:09:08.899Z,18.82
2024-02-29T10:12:31.138Z,18.67
2024-02-29T10:15:50.271Z,18.69
2024-02-29T10:19:09.389Z,18.11
2024-02-29T10:22:30.008Z,18.29
2024-02-29T10:25:53.987Z,18.19
2024-02-29T10:29:16.932Z,18.18
2024-02-29T10:32:34.584Z,18.26
2024-02-29T10:35:56.515Z,18.02
2024-02-29T10:39:17.442Z,18.34
2024-02-29T10:42:35.316Z,18.36
2024-02-29T10:45:56.463Z,18.51
2024-02-29T10:49:20.008Z,18.47
2024-02-29T10:52:40.858Z,18.27
2024-02-29T10:56:03.260Z,18.67
2024-02-29T10:59:24.857Z,18.42
2024-02-29T11:03:07.741Z,18.51
2024-02-29T11:06:24.998Z,18.48
2024-02-29T11:09:47.031Z,18.46
2024-02-29T11:13:14.648Z,18.53
2024-02-29T11:16:32.714Z,18.64
2024-02-29T11:19:54.868Z,18.68
2024-02-29T11:23:18.156Z,18.59
2024-02-29T11:26:40.795Z,18.75
2024-02-29T11:30:06.830Z,18.73
2024-02-29T11:33:27.708Z,18.57
2024-02-29T11:36:47.841Z,18.53
2024-02-29T11:40:15.381Z,18.73
2024-02-29T11:43:33.743Z,18.65
2024-02-29T11:47:00.624Z,18.58
2024-02-29T11:50:21.312Z,18.68
2024-02-29T11:53:45.083Z,18.68
2024-02-29T11:57:04.673Z,18.55
2024-02-29T12:00:27.895Z,18.74
2024-02-29T12:03:46.572Z,18.81
2024-02-29T12:07:05.042Z,18.90
2024-02-29T12:10:23.374Z,18.78
2024-02-29T12:13:40.859Z,18.78
2024-02-29T12:16:58.816Z,18.96
2024-02-29T12:20:19.141Z,19.00
2024-02-29T12:23:39.426Z,19.03
2024-02-29T12:26:58.765Z,19.20
2024-02-29T12:30:19.395Z,19.36
2024-02-29T12:33:37.349Z,19.22
2024-02-29T12:36:57.018Z,19.33
2024-02-29T12:40:18.028Z,19.18
2024-02-29T12:43:35.837Z,19.29
2024-02-29T12:47:00.285Z,19.27
2024-02-29T12:50:19.091Z,19.48
2024-02-29T12:53:36.768Z,19.49
2024-02-29T12:56:56.258Z,19.74
2024-02-29T13:00:17.115Z,19.66
2024-02-29T13:03:34.905Z,19.83
2024-02-29T13:06:54.882Z,19.86
2024-02-29T13:10:15.745Z,19.81
2024-02-29T13:13:33.463Z,19.91
2024-02-29T13:16:54.144Z,20.05
2024-02-29T13:20:13.263Z,20.19
2024-02-29T13:23:31.340Z,20.34
2024-02-29T13:26:49.461Z,20.31
2024-02-29T13:30:11.186Z,20.52
2024-02-29T13:33:28.923Z,20.61
2024-02-29T13:36:46.731Z,20.58
2024-02-29T13:40:05.507Z,20.80
2024-02-29T13:43:23.143Z,20.67
2024-02-29T13:46:41.175Z,20.91
2024-02-29T13:49:58.931Z,21.18
2024-02-29T13:53:16.888Z,20.98
2024-02-29T13:56:36.270Z,20.83
2024-02-29T13:59:56.277Z,20.90
2024-02-29T14:03:14.297Z,20.98
2024-02-29T14:06:34.937Z,20.75
2024-02-29T14:09:53.607Z,21.04
2024-02-29T14:13:11.960Z,21.07
2024-02-29T14:16:29.595Z,20.97
2024-02-29T14:19:47.309Z,20.73
2024-02-29T14:23:05.726Z,20.72
2024-02-29T14:26:24.205Z,20.55
2024-02-29T14:29:41.745Z,20.59
2024-02-29T14:33:01.215Z,20.45
2024-02-29T14:36:22.021Z,20.55
2024-02-29T14:39:39.723Z,20.38
2024-02-29T14:42:57.628Z,20.34
2024-02-29T14:46:15.315Z,20.33
2024-02-29T14:49:33.245Z,20.03
2024-02-29T14:52:52.427Z,19.93
2024-02-29T14:56:10.318Z,19.87
2024-02-29T14:59:27.717Z,19.65
2024-02-29T15:02:45.463Z,19.51
2024-02-29T15:06:02.897Z,19.32
2024-02-29T15:09:20.606Z,19.29
2024-02-29T15:12:38.178Z,19.29
2024-02-29T15:15:56.294Z,19.27
2024-02-29T15:19:14.026Z,19.11
2024-02-29T15:22:33.204Z,19.04
2024-02-29T15:25:51.616Z,19.01
2024-02-29T15:29:09.376Z,18.89
2024-02-29T15:32:27.046Z,18.90
2024-02-29T15:35:44.714Z,18.65
2024-02-29T15:39:02.477Z,18.74
2024-02-29T15:42:21.620Z,18.68
2024-02-29T15:45:38.970Z,18.63
2024-02-29T15:48:56.931Z,18.47
2024-02-29T15:52:15.428Z,18.54
2024-02-29T15:55:33.063Z,18.37
2024-02-29T15:58:50.999Z,18.32
2024-02-29T16:02:08.733Z,18.22
2024-02-29T16:05:27.541Z,18.12
2024-02-29T16:08:45.129Z,18.06
2024-02-29T16:12:03.787Z,18.08
2024-02-29T16:15:21.579Z,17.92
2024-02-29T16:18:39.104Z,17.66
2024-02-29T16:21:56.645Z,17.53
2024-02-29T16:25:15.524Z,17.50
2024-02-29T16:28:33.362Z,17.35
2024-02-29T16:31:51.107Z,17.25
2024-02-29T16:35:09.138Z,17.12
2024-02-29T16:38:27.400Z,17.24
2024-02-29T16:41:45.693Z,17.06
2024-02-29T16:45:03.530Z,17.21
2024-02-29T16:48:21.430Z,17.07
2024-02-29T16:51:38.950Z,16.97
2024-02-29T16:54:56.835Z,16.90
2024-02-29T16:58:14.918Z,16.81
2024-02-29T17:01:32.546Z,16.84
2024-02-29T17:04:51.886Z,16.75
2024-02-29T17:08:10.321Z,16.78
2024-02-29T17:11:27.988Z,16.70
2024-02-29T17:14:45.775Z,16.50
2024-02-29T17:18:03.364Z,16.57
2024-02-29T17:21:22.957Z,16.38
2024-02-29T17:24:42.354Z,16.07
2024-02-29T17:27:59.935Z,16.27
2024-02-29T17:31:17.524Z,16.24
2024-02-29T17:34:35.210Z,16.15
2024-02-29T17:37:52.958Z,16.08
2024-02-29T17:41:10.971Z,16.12
2024-02-29T17:44:28.819Z,16.09
2024-02-29T17:47:47.623Z,16.04
2024-02-29T17:51:04.752Z,16.02
2024-02-29T17:54:22.779Z,16.02
2024-02-29T17:57:40.318Z,15.89
2024-02-29T18:00:59.482Z,15.86
2024-02-29T18:04:17.139Z,15.69
2024-02-29T18:07:38.280Z,15.70
2024-02-29T18:10:54.755Z,15.65
2024-02-29T18:14:12.423Z,15.46
2024-02-29T18:17:30.408Z,15.58
2024-02-29T18:20:48.316Z,15.56
2024-02-29T18:24:05.949Z,15.47
2024-02-29T18:27:23.650Z,15.50
2024-02-29T18:30:42.365Z,15.44
2024-02-29T18:34:00.125Z,15.35
2024-02-29T18:37:18.731Z,15.38
2024-02-29T18:40:37.203Z,15.48
2024-02-29T18:43:54.916Z,15.45
2024-02-29T18:47:13.210Z,15.39
2024-02-29T18:50:30.915Z,15.40
2024-02-29T18:53:48.972Z,15.39
2024-02-29T18:57:06.872Z,15.43
2024-02-29T19:00:26.193Z,15.30
2024-02-29T19:03:43.638Z,15.27
2024-02-29T19:07:01.743Z,15.23
2024-02-29T19:10:20.665Z,15.14
2024-02-29T19:13:38.017Z,15.13
2024-02-29T19:16:55.807Z,15.10
2024-02-29T19:20:15.446Z,15.26
2024-02-29T19:23:33.222Z,15.14
2024-02-29T19:26:51.829Z,15.17
2024-02-29T19:30:10.741Z,14.99
2024-02-29T19:33:28.415Z,15.03
2024-02-29T19:36:45.935Z,15.14
2024-02-29T19:40:03.881Z,15.08
2024-02-29T19:43:24.201Z,14.99
2024-02-29T19:46:41.869Z,14.91
2024-02-29T19:49:59.523Z,14.85
2024-02-29T19:53:18.000Z,14.73
2024-02-29T19:56:35.609Z,14.75
2024-02-29T19:59:53.318Z,14.78
2024-02-29T20:03:11.532Z,14.75
2024-02-29T20:06:29.348Z,14.78
2024-02-29T20:09:47.795Z,14.78
2024-02-29T20:13:05.819Z,14.77
2024-02-29T20:16:23.860Z,14.71
2024-02-29T20:19:42.193Z,14.64
2024-02-29T20:23:01.303Z,14.51
2024-02-29T20:26:24.933Z,14.44
2024-02-29T20:29:43.076Z,14.46
2024-02-29T20:33:01.120Z,14.40
2024-02-29T20:36:19.373Z,14.29
2024-02-29T20:39:37.272Z,14.32
2024-02-29T20:42:54.975Z,14.23
2024-02-29T20:46:13.096Z,14.31
2024-02-29T20:49:31.360Z,14.24
2024-02-29T20:52:49.798Z,14.30
2024-02-29T20:56:08.017Z,14.29
2024-02-29T20:59:28.054Z,14.36
2024-02-29T21:02:48.252Z,14.29
2024-02-29T21:06:06.198Z,14.37
2024-02-29T21:09:24.829Z,14.36
2024-02-29T21:12:42.439Z,14.39
2024-02-29T21:16:00.883Z,14.43
2024-02-29T21:19:20.508Z,14.25
2024-02-29T21:22:38.094Z,14.25
2024-02-29T21:25:55.922Z,14.19
2024-02-29T21:29:13.440Z,14.01
2024-02-29T21:32:31.387Z,14.00
2024-02-29T21:35:50.925Z,13.86
2024-02-29T21:39:10.237Z,14.11
2024-02-29T21:42:27.698Z,14.09
2024-02-29T21:45:45.237Z,14.09
2024-02-29T21:49:03.136Z,14.16
2024-02-29T21:52:20.986Z,14.09
2024-02-29T21:55:38.608Z,14.11
2024-02-29T21:58:58.705Z,14.18
2024-02-29T22:02:17.365Z,14.14
2024-02-29T22:05:35.307Z,14.30
2024-02-29T22:08:53.802Z,14.26
2024-02-29T22:12:12.087Z,14.42
2024-02-29T22:15:29.929Z,14.37
2024-02-29T22:18:48.065Z,14.17
2024-02-29T22:22:05.860Z,14.27
2024-02-29T22:25:26.992Z,14.25
2024-02-29T22:28:44.575Z,14.21
2024-02-29T22:32:04.108Z,14.15
2024-02-29T22:35:22.892Z,14.08
2024-02-29T22:38:41.039Z,14.14
2024-02-29T22:42:02.205Z,14.10
2024-02-29T22:45:19.755Z,14.07
2024-02-29T22:48:38.211Z,14.11
2024-02-29T22:51:56.717Z,14.11
2024-02-29T22:55:15.695Z,14.02
2024-02-29T22:58:33.437Z,13.98
2024-02-29T23:01:51.674Z,13.92
2024-02-29T23:05:09.907Z,13.96
2024-02-29T23:08:27.496Z,14.11
2024-02-29T23:11:45.879Z,14.18
2024-02-29T23:15:03.286Z,14.15
2024-02-29T23:18:20.744Z,14.11
2024-02-29T23:21:38.551Z,14.21
2024-02-29T23:24:56.197Z,14.13
2024-02-29T23:28:14.508Z,14.20
2024-02-29T23:31:32.488Z,14.13
2024-02-29T23:34:50.239Z,14.05
2024-02-29T23:38:07.653Z,13.93
2024-02-29T23:41:26.252Z,13.91
2024-02-29T23:44:43.979Z,14.08
2024-02-29T23:48:01.549Z,14.15
2024-02-29T23:51:19.322Z,14.02
2024-02-29T23:54:36.781Z,14.00
2024-02-29T23:57:54.622Z,14.05
